sensor_id;sensor_type;location;lat;lon;timestamp;temperature;humidity
61253;DHT22;47127;47.516;8.596;2023-07-20T00:01:21;21.00;99.90
61253;DHT22;47127;47.516;8.596;2023-07-20T00:03:47;20.90;99.90
61253;DHT22;47127;47.516;8.596;2023-07-20T00:06:20;21.00;99.90
61253;DHT22;47127;47.516;8.596;2023-07-20T00:08:46;21.00;99.90
61253;DHT22;47127;47.516;8.596;2023-07-20T00:11:11;21.10;99.90
61253;DHT22;47127;47.516;8.596;2023-07-20T00:13:39;21.10;99.90
61253;DHT22;47127;47.516;8.596;2023-07-20T00:16:04;21.10;99.90
61253;DHT22;47127;47.516;8.596;2023-07-20T00:18:30;21.20;99.90
61253;DHT22;47127;47.516;8.596;2023-07-20T00:20:57;21.20;99.90
61253;DHT22;47127;47.516;8.596;2023-07-20T00:23:22;21.30;99.90
61253;DHT22;47127;47.516;8.596;2023-07-20T00:25:48;21.30;99.90
61253;DHT22;47127;47.516;8.596;2023-07-20T00:28:14;21.30;99.90
61253;DHT22;47127;47.516;8.596;2023-07-20T00:30:40;21.30;99.90
61253;DHT22;47127;47.516;8.596;2023-07-20T00:33:10;21.20;99.90
61253;DHT22;47127;47.516;8.596;2023-07-20T00:35:37;21.10;99.90
61253;DHT22;47127;47.516;8.596;2023-07-20T00:38:03;21.10;99.90
61253;DHT22;47127;47.516;8.596;2023-07-20T00:40:29;21.00;99.90
61253;DHT22;47127;47.516;8.596;2023-07-20T00:42:54;21.00;99.90
61253;DHT22;47127;47.516;8.596;2023-07-20T00:45:20;20.90;99.90
61253;DHT22;47127;47.516;8.596;2023-07-20T00:47:45;20.90;99.90
61253;DHT22;47127;47.516;8.596;2023-07-20T00:50:11;20.90;99.90
61253;DHT22;47127;47.516;8.596;2023-07-20T00:52:38;20.90;99.90
61253;DHT22;47127;47.516;8.596;2023-07-20T00:55:07;21.00;99.90
61253;DHT22;47127;47.516;8.596;2023-07-20T00:57:34;21.00;99.90
61253;DHT22;47127;47.516;8.596;2023-07-20T00:59:59;21.00;99.90
61253;DHT22;47127;47.516;8.596;2023-07-20T01:02:25;21.00;99.90
61253;DHT22;47127;47.516;8.596;2023-07-20T01:04:50;21.00;99.90
61253;DHT22;47127;47.516;8.596;2023-07-20T01:07:25;21.00;99.90
61253;DHT22;47127;47.516;8.596;2023-07-20T01:12:43;20.90;99.90
61253;DHT22;47127;47.516;8.596;2023-07-20T01:15:11;20.90;99.90
61253;DHT22;47127;47.516;8.596;2023-07-20T01:17:39;21.00;99.90
61253;DHT22;47127;47.516;8.596;2023-07-20T01:20:07;21.00;99.90
61253;DHT22;47127;47.516;8.596;2023-07-20T01:33:44;20.80;99.90
61253;DHT22;47127;47.516;8.596;2023-07-20T01:36:11;20.70;99.90
61253;DHT22;47127;47.516;8.596;2023-07-20T01:38:37;20.70;99.90
61253;DHT22;47127;47.516;8.596;2023-07-20T01:41:03;20.80;99.90
61253;DHT22;47127;47.516;8.596;2023-07-20T01:43:30;20.80;99.90
61253;DHT22;47127;47.516;8.596;2023-07-20T01:45:55;20.80;99.90
61253;DHT22;47127;47.516;8.596;2023-07-20T01:48:21;20.80;99.90
61253;DHT22;47127;47.516;8.596;2023-07-20T01:50:47;20.70;99.90
61253;DHT22;47127;47.516;8.596;2023-07-20T01:53:12;20.70;99.90
61253;DHT22;47127;47.516;8.596;2023-07-20T01:55:38;20.70;99.90
61253;DHT22;47127;47.516;8.596;2023-07-20T01:58:03;20.80;99.90
61253;DHT22;47127;47.516;8.596;2023-07-20T02:00:29;20.70;99.90
61253;DHT22;47127;47.516;8.596;2023-07-20T02:02:55;20.80;99.90
61253;DHT22;47127;47.516;8.596;2023-07-20T02:05:21;20.80;99.90
61253;DHT22;47127;47.516;8.596;2023-07-20T02:07:46;20.80;99.90
61253;DHT22;47127;47.516;8.596;2023-07-20T02:10:12;20.80;99.90
61253;DHT22;47127;47.516;8.596;2023-07-20T02:12:37;20.70;99.90
61253;DHT22;47127;47.516;8.596;2023-07-20T02:15:03;20.70;99.90
61253;DHT22;47127;47.516;8.596;2023-07-20T02:17:29;20.60;99.90
61253;DHT22;47127;47.516;8.596;2023-07-20T02:19:55;20.50;99.90
61253;DHT22;47127;47.516;8.596;2023-07-20T02:22:21;20.50;99.90
61253;DHT22;47127;47.516;8.596;2023-07-20T02:24:46;20.50;99.90
61253;DHT22;47127;47.516;8.596;2023-07-20T02:27:12;20.60;99.90
61253;DHT22;47127;47.516;8.596;2023-07-20T02:29:38;20.60;99.90
61253;DHT22;47127;47.516;8.596;2023-07-20T02:32:03;20.60;99.90
61253;DHT22;47127;47.516;8.596;2023-07-20T02:34:29;20.50;99.90
61253;DHT22;47127;47.516;8.596;2023-07-20T02:36:55;20.40;99.90
61253;DHT22;47127;47.516;8.596;2023-07-20T02:39:24;20.40;99.90
61253;DHT22;47127;47.516;8.596;2023-07-20T02:41:49;20.40;99.90
61253;DHT22;47127;47.516;8.596;2023-07-20T02:44:15;20.40;99.90
61253;DHT22;47127;47.516;8.596;2023-07-20T02:46:41;20.50;99.90
61253;DHT22;47127;47.516;8.596;2023-07-20T02:49:06;20.40;99.90
61253;DHT22;47127;47.516;8.596;2023-07-20T02:51:32;20.40;99.90
61253;DHT22;47127;47.516;8.596;2023-07-20T02:53:58;20.40;99.90
61253;DHT22;47127;47.516;8.596;2023-07-20T02:56:24;20.50;99.90
61253;DHT22;47127;47.516;8.596;2023-07-20T02:58:50;20.50;99.90
61253;DHT22;47127;47.516;8.596;2023-07-20T03:01:15;20.50;99.90
61253;DHT22;47127;47.516;8.596;2023-07-20T03:03:42;20.50;99.90
61253;DHT22;47127;47.516;8.596;2023-07-20T03:06:11;20.30;99.90
61253;DHT22;47127;47.516;8.596;2023-07-20T03:08:36;20.30;99.90
61253;DHT22;47127;47.516;8.596;2023-07-20T03:11:02;20.30;99.90
61253;DHT22;47127;47.516;8.596;2023-07-20T03:13:28;20.30;99.90
61253;DHT22;47127;47.516;8.596;2023-07-20T03:15:53;20.30;99.90
61253;DHT22;47127;47.516;8.596;2023-07-20T03:18:19;20.30;99.90
61253;DHT22;47127;47.516;8.596;2023-07-20T03:20:44;20.30;99.90
61253;DHT22;47127;47.516;8.596;2023-07-20T03:23:12;20.40;99.90
61253;DHT22;47127;47.516;8.596;2023-07-20T03:25:37;20.40;99.90
61253;DHT22;47127;47.516;8.596;2023-07-20T03:28:04;20.30;99.90
61253;DHT22;47127;47.516;8.596;2023-07-20T03:30:29;20.30;99.90
61253;DHT22;47127;47.516;8.596;2023-07-20T03:32:55;20.20;99.90
61253;DHT22;47127;47.516;8.596;2023-07-20T03:35:20;20.10;99.90
61253;DHT22;47127;47.516;8.596;2023-07-20T03:37:46;20.20;99.90
61253;DHT22;47127;47.516;8.596;2023-07-20T03:40:11;20.10;99.90
61253;DHT22;47127;47.516;8.596;2023-07-20T03:42:37;20.10;99.90
61253;DHT22;47127;47.516;8.596;2023-07-20T03:45:04;20.20;99.90
61253;DHT22;47127;47.516;8.596;2023-07-20T03:47:32;20.10;99.90
61253;DHT22;47127;47.516;8.596;2023-07-20T03:49:57;20.10;99.90
61253;DHT22;47127;47.516;8.596;2023-07-20T03:52:23;20.20;99.90
61253;DHT22;47127;47.516;8.596;2023-07-20T03:54:49;20.30;99.90
61253;DHT22;47127;47.516;8.596;2023-07-20T03:57:16;20.50;99.90
61253;DHT22;47127;47.516;8.596;2023-07-20T03:59:45;20.50;99.90
61253;DHT22;47127;47.516;8.596;2023-07-20T04:02:11;20.50;99.90
61253;DHT22;47127;47.516;8.596;2023-07-20T04:04:37;20.50;99.90
61253;DHT22;47127;47.516;8.596;2023-07-20T04:07:02;20.40;99.90
61253;DHT22;47127;47.516;8.596;2023-07-20T04:09:28;20.50;99.90
61253;DHT22;47127;47.516;8.596;2023-07-20T04:11:54;20.50;99.90
61253;DHT22;47127;47.516;8.596;2023-07-20T04:14:20;20.40;99.90
61253;DHT22;47127;47.516;8.596;2023-07-20T04:16:48;20.30;99.90
61253;DHT22;47127;47.516;8.596;2023-07-20T04:19:14;20.30;99.90
61253;DHT22;47127;47.516;8.596;2023-07-20T04:21:40;20.30;99.90
61253;DHT22;47127;47.516;8.596;2023-07-20T04:24:06;20.30;99.90
61253;DHT22;47127;47.516;8.596;2023-07-20T04:26:32;20.50;99.90
61253;DHT22;47127;47.516;8.596;2023-07-20T04:28:57;20.50;99.90
61253;DHT22;47127;47.516;8.596;2023-07-20T04:31:24;20.40;99.90
61253;DHT22;47127;47.516;8.596;2023-07-20T04:33:51;20.40;99.90
61253;DHT22;47127;47.516;8.596;2023-07-20T04:36:17;20.30;99.90
61253;DHT22;47127;47.516;8.596;2023-07-20T04:38:47;20.40;99.90
61253;DHT22;47127;47.516;8.596;2023-07-20T04:41:13;20.40;99.90
61253;DHT22;47127;47.516;8.596;2023-07-20T04:43:42;20.50;99.90
61253;DHT22;47127;47.516;8.596;2023-07-20T04:46:11;20.50;99.90
61253;DHT22;47127;47.516;8.596;2023-07-20T04:48:36;20.50;99.90
61253;DHT22;47127;47.516;8.596;2023-07-20T04:51:03;20.40;99.90
61253;DHT22;47127;47.516;8.596;2023-07-20T04:53:28;20.50;99.90
61253;DHT22;47127;47.516;8.596;2023-07-20T04:55:54;20.50;99.90
61253;DHT22;47127;47.516;8.596;2023-07-20T04:58:20;20.50;99.90
61253;DHT22;47127;47.516;8.596;2023-07-20T05:00:48;20.60;99.90
61253;DHT22;47127;47.516;8.596;2023-07-20T05:03:13;20.60;99.90
61253;DHT22;47127;47.516;8.596;2023-07-20T05:05:39;20.60;99.90
61253;DHT22;47127;47.516;8.596;2023-07-20T05:08:05;20.50;99.90
61253;DHT22;47127;47.516;8.596;2023-07-20T05:10:30;20.50;99.90
61253;DHT22;47127;47.516;8.596;2023-07-20T05:12:57;20.50;99.90
61253;DHT22;47127;47.516;8.596;2023-07-20T05:15:23;20.60;99.90
61253;DHT22;47127;47.516;8.596;2023-07-20T05:17:49;20.80;99.90
61253;DHT22;47127;47.516;8.596;2023-07-20T05:20:14;20.70;99.90
61253;DHT22;47127;47.516;8.596;2023-07-20T05:22:40;20.70;99.90
61253;DHT22;47127;47.516;8.596;2023-07-20T05:25:10;20.70;99.90
61253;DHT22;47127;47.516;8.596;2023-07-20T05:27:37;20.70;99.90
61253;DHT22;47127;47.516;8.596;2023-07-20T05:30:03;20.70;99.90
61253;DHT22;47127;47.516;8.596;2023-07-20T05:32:29;20.80;99.90
61253;DHT22;47127;47.516;8.596;2023-07-20T05:34:54;20.80;99.90
61253;DHT22;47127;47.516;8.596;2023-07-20T05:37:20;20.80;99.90
61253;DHT22;47127;47.516;8.596;2023-07-20T05:39:46;20.80;99.90
61253;DHT22;47127;47.516;8.596;2023-07-20T05:42:12;20.80;99.90
61253;DHT22;47127;47.516;8.596;2023-07-20T05:44:37;20.70;99.90
61253;DHT22;47127;47.516;8.596;2023-07-20T05:47:03;20.70;99.90
61253;DHT22;47127;47.516;8.596;2023-07-20T05:49:29;20.70;99.90
61253;DHT22;47127;47.516;8.596;2023-07-20T05:51:55;20.70;99.90
61253;DHT22;47127;47.516;8.596;2023-07-20T05:54:21;20.80;99.90
61253;DHT22;47127;47.516;8.596;2023-07-20T05:56:47;20.70;99.90
61253;DHT22;47127;47.516;8.596;2023-07-20T05:59:13;20.70;99.90
61253;DHT22;47127;47.516;8.596;2023-07-20T06:01:38;20.80;99.90
61253;DHT22;47127;47.516;8.596;2023-07-20T06:04:05;20.70;99.90
61253;DHT22;47127;47.516;8.596;2023-07-20T06:06:31;20.70;99.90
61253;DHT22;47127;47.516;8.596;2023-07-20T06:08:56;20.70;99.90
61253;DHT22;47127;47.516;8.596;2023-07-20T06:11:22;20.70;99.90
61253;DHT22;47127;47.516;8.596;2023-07-20T06:13:47;20.70;99.90
61253;DHT22;47127;47.516;8.596;2023-07-20T06:16:13;20.80;99.90
61253;DHT22;47127;47.516;8.596;2023-07-20T06:18:38;20.90;99.90
61253;DHT22;47127;47.516;8.596;2023-07-20T06:21:04;21.10;99.90
61253;DHT22;47127;47.516;8.596;2023-07-20T06:23:30;21.20;99.90
61253;DHT22;47127;47.516;8.596;2023-07-20T06:25:55;21.20;99.90
61253;DHT22;47127;47.516;8.596;2023-07-20T06:28:21;21.30;99.90
61253;DHT22;47127;47.516;8.596;2023-07-20T06:30:46;21.40;99.90
61253;DHT22;47127;47.516;8.596;2023-07-20T06:33:12;21.40;99.90
61253;DHT22;47127;47.516;8.596;2023-07-20T06:35:41;21.40;99.90
61253;DHT22;47127;47.516;8.596;2023-07-20T06:38:07;21.40;99.90
61253;DHT22;47127;47.516;8.596;2023-07-20T06:40:33;21.40;99.90
61253;DHT22;47127;47.516;8.596;2023-07-20T06:42:59;21.50;99.90
61253;DHT22;47127;47.516;8.596;2023-07-20T06:45:24;21.50;99.90
61253;DHT22;47127;47.516;8.596;2023-07-20T06:47:52;21.70;99.90
61253;DHT22;47127;47.516;8.596;2023-07-20T06:50:17;21.70;99.90
61253;DHT22;47127;47.516;8.596;2023-07-20T06:52:43;21.80;99.90
61253;DHT22;47127;47.516;8.596;2023-07-20T06:55:09;21.90;99.90
61253;DHT22;47127;47.516;8.596;2023-07-20T06:57:34;22.10;99.80
61253;DHT22;47127;47.516;8.596;2023-07-20T07:00:00;22.10;99.50
61253;DHT22;47127;47.516;8.596;2023-07-20T07:02:26;22.30;99.10
61253;DHT22;47127;47.516;8.596;2023-07-20T07:04:51;22.40;98.90
61253;DHT22;47127;47.516;8.596;2023-07-20T07:07:17;22.40;98.50
61253;DHT22;47127;47.516;8.596;2023-07-20T07:09:42;22.50;98.40
61253;DHT22;47127;47.516;8.596;2023-07-20T07:12:08;22.40;98.20
61253;DHT22;47127;47.516;8.596;2023-07-20T07:14:34;22.30;98.40
61253;DHT22;47127;47.516;8.596;2023-07-20T07:17:00;22.40;98.60
61253;DHT22;47127;47.516;8.596;2023-07-20T07:19:25;22.40;98.10
61253;DHT22;47127;47.516;8.596;2023-07-20T07:21:51;22.70;97.70
61253;DHT22;47127;47.516;8.596;2023-07-20T07:24:17;22.90;97.30
61253;DHT22;47127;47.516;8.596;2023-07-20T07:26:43;23.00;96.50
61253;DHT22;47127;47.516;8.596;2023-07-20T07:29:09;22.80;97.30
61253;DHT22;47127;47.516;8.596;2023-07-20T07:31:35;22.80;96.80
61253;DHT22;47127;47.516;8.596;2023-07-20T07:34:04;22.60;96.70
61253;DHT22;47127;47.516;8.596;2023-07-20T07:36:31;22.80;97.00
61253;DHT22;47127;47.516;8.596;2023-07-20T07:38:56;23.00;96.50
61253;DHT22;47127;47.516;8.596;2023-07-20T07:41:22;23.10;96.30
61253;DHT22;47127;47.516;8.596;2023-07-20T07:43:48;23.30;95.90
61253;DHT22;47127;47.516;8.596;2023-07-20T07:46:14;23.30;95.20
61253;DHT22;47127;47.516;8.596;2023-07-20T07:48:40;23.30;94.20
61253;DHT22;47127;47.516;8.596;2023-07-20T07:51:05;23.30;94.40
61253;DHT22;47127;47.516;8.596;2023-07-20T07:53:31;23.20;94.40
61253;DHT22;47127;47.516;8.596;2023-07-20T07:55:58;23.10;94.30
61253;DHT22;47127;47.516;8.596;2023-07-20T07:58:24;23.10;94.40
61253;DHT22;47127;47.516;8.596;2023-07-20T08:00:49;23.20;94.30
61253;DHT22;47127;47.516;8.596;2023-07-20T08:03:15;23.30;94.40
61253;DHT22;47127;47.516;8.596;2023-07-20T08:05:41;23.30;94.60
61253;DHT22;47127;47.516;8.596;2023-07-20T08:08:06;23.40;94.10
61253;DHT22;47127;47.516;8.596;2023-07-20T08:10:32;23.60;93.50
61253;DHT22;47127;47.516;8.596;2023-07-20T08:12:57;23.50;93.70
61253;DHT22;47127;47.516;8.596;2023-07-20T08:15:23;23.40;93.70
61253;DHT22;47127;47.516;8.596;2023-07-20T08:17:49;23.20;93.70
61253;DHT22;47127;47.516;8.596;2023-07-20T08:20:17;23.20;94.40
61253;DHT22;47127;47.516;8.596;2023-07-20T08:22:42;23.20;94.00
61253;DHT22;47127;47.516;8.596;2023-07-20T08:25:09;23.10;94.20
61253;DHT22;47127;47.516;8.596;2023-07-20T08:27:35;23.10;93.90
61253;DHT22;47127;47.516;8.596;2023-07-20T08:30:01;23.20;94.00
61253;DHT22;47127;47.516;8.596;2023-07-20T08:32:28;23.20;93.70
61253;DHT22;47127;47.516;8.596;2023-07-20T08:34:53;23.20;93.80
61253;DHT22;47127;47.516;8.596;2023-07-20T08:37:19;23.30;93.80
61253;DHT22;47127;47.516;8.596;2023-07-20T08:39:44;23.50;93.50
61253;DHT22;47127;47.516;8.596;2023-07-20T08:42:10;23.60;93.30
61253;DHT22;47127;47.516;8.596;2023-07-20T08:44:38;23.50;93.20
61253;DHT22;47127;47.516;8.596;2023-07-20T08:47:04;23.60;92.50
61253;DHT22;47127;47.516;8.596;2023-07-20T08:49:31;23.80;93.00
61253;DHT22;47127;47.516;8.596;2023-07-20T08:51:59;23.80;92.70
61253;DHT22;47127;47.516;8.596;2023-07-20T08:54:29;24.10;92.20
61253;DHT22;47127;47.516;8.596;2023-07-20T08:56:56;24.20;92.30
61253;DHT22;47127;47.516;8.596;2023-07-20T08:59:23;24.40;92.20
61253;DHT22;47127;47.516;8.596;2023-07-20T09:01:50;24.50;91.70
61253;DHT22;47127;47.516;8.596;2023-07-20T09:04:17;24.50;91.40
61253;DHT22;47127;47.516;8.596;2023-07-20T09:06:42;24.30;91.60
61253;DHT22;47127;47.516;8.596;2023-07-20T09:09:08;24.10;91.40
61253;DHT22;47127;47.516;8.596;2023-07-20T09:11:33;24.10;91.70
61253;DHT22;47127;47.516;8.596;2023-07-20T09:14:09;24.30;91.60
61253;DHT22;47127;47.516;8.596;2023-07-20T09:16:50;24.20;91.50
61253;DHT22;47127;47.516;8.596;2023-07-20T09:19:16;24.00;91.70
61253;DHT22;47127;47.516;8.596;2023-07-20T09:21:47;23.70;92.00
61253;DHT22;47127;47.516;8.596;2023-07-20T09:24:13;23.40;92.70
61253;DHT22;47127;47.516;8.596;2023-07-20T09:26:43;23.40;92.90
61253;DHT22;47127;47.516;8.596;2023-07-20T09:29:09;23.50;92.80
61253;DHT22;47127;47.516;8.596;2023-07-20T09:31:35;23.60;93.20
61253;DHT22;47127;47.516;8.596;2023-07-20T09:34:01;23.90;92.60
61253;DHT22;47127;47.516;8.596;2023-07-20T09:36:27;24.10;92.30
61253;DHT22;47127;47.516;8.596;2023-07-20T09:38:53;24.40;92.10
61253;DHT22;47127;47.516;8.596;2023-07-20T09:41:20;24.40;91.80
61253;DHT22;47127;47.516;8.596;2023-07-20T09:43:46;24.40;91.80
61253;DHT22;47127;47.516;8.596;2023-07-20T09:46:11;24.20;91.80
61253;DHT22;47127;47.516;8.596;2023-07-20T09:48:37;24.50;92.00
61253;DHT22;47127;47.516;8.596;2023-07-20T09:51:03;24.50;91.70
61253;DHT22;47127;47.516;8.596;2023-07-20T09:53:32;24.20;91.40
61253;DHT22;47127;47.516;8.596;2023-07-20T09:55:59;24.30;91.70
61253;DHT22;47127;47.516;8.596;2023-07-20T09:58:26;24.10;91.50
61253;DHT22;47127;47.516;8.596;2023-07-20T10:00:54;23.90;91.60
61253;DHT22;47127;47.516;8.596;2023-07-20T10:03:27;23.80;92.00
61253;DHT22;47127;47.516;8.596;2023-07-20T10:05:58;24.00;91.90
61253;DHT22;47127;47.516;8.596;2023-07-20T10:08:25;24.30;91.80
61253;DHT22;47127;47.516;8.596;2023-07-20T10:10:51;24.70;91.30
61253;DHT22;47127;47.516;8.596;2023-07-20T10:13:21;24.70;91.60
61253;DHT22;47127;47.516;8.596;2023-07-20T10:15:54;24.80;91.50
61253;DHT22;47127;47.516;8.596;2023-07-20T10:18:55;25.00;91.60
61253;DHT22;47127;47.516;8.596;2023-07-20T10:21:24;25.10;91.10
61253;DHT22;47127;47.516;8.596;2023-07-20T10:23:51;25.20;90.70
61253;DHT22;47127;47.516;8.596;2023-07-20T10:26:16;25.10;90.90
61253;DHT22;47127;47.516;8.596;2023-07-20T10:28:43;25.20;90.40
61253;DHT22;47127;47.516;8.596;2023-07-20T10:31:10;25.00;90.80
61253;DHT22;47127;47.516;8.596;2023-07-20T10:33:37;24.90;91.50
61253;DHT22;47127;47.516;8.596;2023-07-20T10:36:04;25.00;91.50
61253;DHT22;47127;47.516;8.596;2023-07-20T10:38:42;25.00;90.60
61253;DHT22;47127;47.516;8.596;2023-07-20T10:41:31;24.60;89.70
61253;DHT22;47127;47.516;8.596;2023-07-20T10:44:01;24.20;90.50
61253;DHT22;47127;47.516;8.596;2023-07-20T10:49:07;24.40;89.40
61253;DHT22;47127;47.516;8.596;2023-07-20T10:51:43;24.50;90.30
61253;DHT22;47127;47.516;8.596;2023-07-20T10:57:21;24.70;89.10
61253;DHT22;47127;47.516;8.596;2023-07-20T10:59:47;25.10;88.00
61253;DHT22;47127;47.516;8.596;2023-07-20T11:02:13;25.30;88.40
61253;DHT22;47127;47.516;8.596;2023-07-20T11:04:43;25.60;88.10
61253;DHT22;47127;47.516;8.596;2023-07-20T11:07:09;25.60;86.70
61253;DHT22;47127;47.516;8.596;2023-07-20T11:09:35;25.40;87.30
61253;DHT22;47127;47.516;8.596;2023-07-20T11:12:15;25.30;87.60
61253;DHT22;47127;47.516;8.596;2023-07-20T11:14:43;25.20;87.80
61253;DHT22;47127;47.516;8.596;2023-07-20T11:17:14;25.40;87.20
61253;DHT22;47127;47.516;8.596;2023-07-20T11:19:40;25.60;86.40
61253;DHT22;47127;47.516;8.596;2023-07-20T11:22:08;25.60;86.30
61253;DHT22;47127;47.516;8.596;2023-07-20T11:24:34;25.60;85.30
61253;DHT22;47127;47.516;8.596;2023-07-20T11:27:03;26.00;85.40
61253;DHT22;47127;47.516;8.596;2023-07-20T11:29:29;26.40;85.20
61253;DHT22;47127;47.516;8.596;2023-07-20T11:31:56;26.60;82.50
61253;DHT22;47127;47.516;8.596;2023-07-20T11:34:22;26.90;82.30
61253;DHT22;47127;47.516;8.596;2023-07-20T11:36:49;26.80;81.70
61253;DHT22;47127;47.516;8.596;2023-07-20T11:39:16;26.90;81.30
61253;DHT22;47127;47.516;8.596;2023-07-20T11:41:56;27.00;81.60
61253;DHT22;47127;47.516;8.596;2023-07-20T11:44:23;27.30;80.00
61253;DHT22;47127;47.516;8.596;2023-07-20T11:47:09;27.40;79.90
61253;DHT22;47127;47.516;8.596;2023-07-20T11:49:42;27.50;79.80
61253;DHT22;47127;47.516;8.596;2023-07-20T11:52:10;27.40;79.20
61253;DHT22;47127;47.516;8.596;2023-07-20T11:54:38;27.40;82.00
61253;DHT22;47127;47.516;8.596;2023-07-20T11:57:04;26.90;79.20
61253;DHT22;47127;47.516;8.596;2023-07-20T11:59:31;27.40;80.00
61253;DHT22;47127;47.516;8.596;2023-07-20T12:01:57;27.80;78.60
61253;DHT22;47127;47.516;8.596;2023-07-20T12:04:23;27.80;76.90
61253;DHT22;47127;47.516;8.596;2023-07-20T12:06:49;27.80;76.20
61253;DHT22;47127;47.516;8.596;2023-07-20T12:09:16;27.60;75.90
61253;DHT22;47127;47.516;8.596;2023-07-20T12:11:43;27.50;76.10
61253;DHT22;47127;47.516;8.596;2023-07-20T12:14:09;27.10;76.60
61253;DHT22;47127;47.516;8.596;2023-07-20T12:16:36;26.90;78.30
61253;DHT22;47127;47.516;8.596;2023-07-20T12:19:11;27.00;76.10
61253;DHT22;47127;47.516;8.596;2023-07-20T12:21:39;27.40;76.30
61253;DHT22;47127;47.516;8.596;2023-07-20T12:24:05;27.50;77.00
61253;DHT22;47127;47.516;8.596;2023-07-20T12:26:32;27.70;74.90
61253;DHT22;47127;47.516;8.596;2023-07-20T12:28:59;27.90;74.30
61253;DHT22;47127;47.516;8.596;2023-07-20T12:31:25;28.10;71.70
61253;DHT22;47127;47.516;8.596;2023-07-20T12:33:51;27.60;75.90
61253;DHT22;47127;47.516;8.596;2023-07-20T12:36:18;27.50;74.50
61253;DHT22;47127;47.516;8.596;2023-07-20T12:38:44;27.60;73.60
61253;DHT22;47127;47.516;8.596;2023-07-20T12:41:11;27.50;74.40
61253;DHT22;47127;47.516;8.596;2023-07-20T12:43:41;27.60;73.90
61253;DHT22;47127;47.516;8.596;2023-07-20T12:46:07;28.00;75.80
61253;DHT22;47127;47.516;8.596;2023-07-20T12:48:32;28.30;73.10
61253;DHT22;47127;47.516;8.596;2023-07-20T12:50:58;28.40;72.70
61253;DHT22;47127;47.516;8.596;2023-07-20T12:53:24;28.50;72.00
61253;DHT22;47127;47.516;8.596;2023-07-20T12:55:49;28.60;71.60
61253;DHT22;47127;47.516;8.596;2023-07-20T12:58:15;28.60;72.40
61253;DHT22;47127;47.516;8.596;2023-07-20T13:00:41;28.80;72.40
61253;DHT22;47127;47.516;8.596;2023-07-20T13:03:07;28.70;72.10
61253;DHT22;47127;47.516;8.596;2023-07-20T13:05:34;29.10;70.30
61253;DHT22;47127;47.516;8.596;2023-07-20T13:08:00;29.00;69.70
61253;DHT22;47127;47.516;8.596;2023-07-20T13:10:26;29.10;67.90
61253;DHT22;47127;47.516;8.596;2023-07-20T13:12:52;28.30;68.50
61253;DHT22;47127;47.516;8.596;2023-07-20T13:15:17;28.60;67.40
61253;DHT22;47127;47.516;8.596;2023-07-20T13:17:44;28.80;67.00
61253;DHT22;47127;47.516;8.596;2023-07-20T13:20:10;29.00;66.70
61253;DHT22;47127;47.516;8.596;2023-07-20T13:22:40;28.90;67.60
61253;DHT22;47127;47.516;8.596;2023-07-20T13:25:06;28.40;68.40
61253;DHT22;47127;47.516;8.596;2023-07-20T13:27:33;28.30;67.50
61253;DHT22;47127;47.516;8.596;2023-07-20T13:29:59;28.20;66.50
61253;DHT22;47127;47.516;8.596;2023-07-20T13:32:26;28.20;67.70
61253;DHT22;47127;47.516;8.596;2023-07-20T13:34:52;28.00;68.70
61253;DHT22;47127;47.516;8.596;2023-07-20T13:37:17;28.00;69.00
61253;DHT22;47127;47.516;8.596;2023-07-20T13:39:43;28.30;67.80
61253;DHT22;47127;47.516;8.596;2023-07-20T13:42:09;28.40;67.90
61253;DHT22;47127;47.516;8.596;2023-07-20T13:44:36;28.40;68.20
61253;DHT22;47127;47.516;8.596;2023-07-20T13:47:03;28.20;67.80
61253;DHT22;47127;47.516;8.596;2023-07-20T13:49:30;28.00;68.20
61253;DHT22;47127;47.516;8.596;2023-07-20T13:51:56;28.10;68.00
61253;DHT22;47127;47.516;8.596;2023-07-20T13:54:22;28.40;68.10
61253;DHT22;47127;47.516;8.596;2023-07-20T13:56:48;28.60;68.10
61253;DHT22;47127;47.516;8.596;2023-07-20T13:59:14;28.30;67.90
61253;DHT22;47127;47.516;8.596;2023-07-20T14:01:39;28.10;68.70
61253;DHT22;47127;47.516;8.596;2023-07-20T14:04:05;28.00;68.80
61253;DHT22;47127;47.516;8.596;2023-07-20T14:06:31;27.90;68.60
61253;DHT22;47127;47.516;8.596;2023-07-20T14:08:58;27.80;69.30
61253;DHT22;47127;47.516;8.596;2023-07-20T14:11:24;27.80;69.60
61253;DHT22;47127;47.516;8.596;2023-07-20T14:13:50;28.00;70.10
61253;DHT22;47127;47.516;8.596;2023-07-20T14:16:16;28.30;69.60
61253;DHT22;47127;47.516;8.596;2023-07-20T14:18:42;28.70;68.50
61253;DHT22;47127;47.516;8.596;2023-07-20T14:21:08;28.70;67.70
61253;DHT22;47127;47.516;8.596;2023-07-20T14:23:33;28.60;68.00
61253;DHT22;47127;47.516;8.596;2023-07-20T14:25:59;28.60;68.20
61253;DHT22;47127;47.516;8.596;2023-07-20T14:28:25;28.60;68.00
61253;DHT22;47127;47.516;8.596;2023-07-20T14:30:50;28.50;67.70
61253;DHT22;47127;47.516;8.596;2023-07-20T14:33:16;28.20;67.20
61253;DHT22;47127;47.516;8.596;2023-07-20T14:35:41;28.60;66.90
61253;DHT22;47127;47.516;8.596;2023-07-20T14:38:07;28.90;66.60
61253;DHT22;47127;47.516;8.596;2023-07-20T14:40:32;29.00;66.40
61253;DHT22;47127;47.516;8.596;2023-07-20T14:42:58;28.80;66.80
61253;DHT22;47127;47.516;8.596;2023-07-20T14:45:29;28.60;67.30
61253;DHT22;47127;47.516;8.596;2023-07-20T14:47:55;28.50;68.70
61253;DHT22;47127;47.516;8.596;2023-07-20T14:50:21;28.30;68.00
61253;DHT22;47127;47.516;8.596;2023-07-20T14:52:46;28.70;67.30
61253;DHT22;47127;47.516;8.596;2023-07-20T14:55:12;29.00;67.60
61253;DHT22;47127;47.516;8.596;2023-07-20T14:57:38;29.20;66.00
61253;DHT22;47127;47.516;8.596;2023-07-20T15:00:05;29.20;66.00
61253;DHT22;47127;47.516;8.596;2023-07-20T15:02:36;29.30;66.50
61253;DHT22;47127;47.516;8.596;2023-07-20T15:05:03;29.00;66.70
61253;DHT22;47127;47.516;8.596;2023-07-20T15:07:28;28.70;67.10
61253;DHT22;47127;47.516;8.596;2023-07-20T15:09:54;28.40;67.20
61253;DHT22;47127;47.516;8.596;2023-07-20T15:12:19;28.30;67.10
61253;DHT22;47127;47.516;8.596;2023-07-20T15:15:02;28.40;67.70
61253;DHT22;47127;47.516;8.596;2023-07-20T15:17:29;28.30;67.80
61253;DHT22;47127;47.516;8.596;2023-07-20T15:19:55;28.50;66.90
61253;DHT22;47127;47.516;8.596;2023-07-20T15:22:20;28.90;66.80
61253;DHT22;47127;47.516;8.596;2023-07-20T15:24:47;29.10;65.90
61253;DHT22;47127;47.516;8.596;2023-07-20T15:27:13;29.40;65.20
61253;DHT22;47127;47.516;8.596;2023-07-20T15:29:38;29.40;65.30
61253;DHT22;47127;47.516;8.596;2023-07-20T15:32:04;29.90;64.90
61253;DHT22;47127;47.516;8.596;2023-07-20T15:34:31;29.80;64.10
61253;DHT22;47127;47.516;8.596;2023-07-20T15:36:56;30.00;63.50
61253;DHT22;47127;47.516;8.596;2023-07-20T15:39:22;30.10;63.60
61253;DHT22;47127;47.516;8.596;2023-07-20T15:41:49;30.20;63.50
61253;DHT22;47127;47.516;8.596;2023-07-20T15:44:15;29.90;64.20
61253;DHT22;47127;47.516;8.596;2023-07-20T15:49:06;29.60;64.60